Aérodrome :
LOGIN :

S'inscrire | Disclaimer

   EN    FR    IT 

 










Légende :    VFR   VFR Marginal   IFR   IFR Intensif   IFR Très Intensif
Visi : 
Plafond : 
>= 8 km
>= 3000ft
5 à 8 km
1000 à 3000 ft
1500m à 5 km
500 à 1000 ft
800 à 1500m
200 à 500 ft
< 800m
< 200 ft
Symboles :   Orages  Brouillard  Fortes neiges  Fortes précipitations  Vent > 20 kt
SIGMETs :   Divers  Orages  Givrage  Turbulence  Onde Orograph.  Cendres Volcan.







- Altitude de l'aérodrome : 1947 ft
- Code IATA : OBF


EDMO - Oberpfaffenhofen

DERNIER METAR :
  • 261650Z 34002KT 7000 -RA SCT005 BKN009 02/01 Q1010

METARs EXPIRÉS :
  • 261620Z 29004KT 8000 -RA SCT006 BKN009 02/01 Q1010
  • 261550Z 27003KT 8000 -RA SCT005 BKN009 02/01 Q1010
  • 261520Z VRB03KT 8000 -RA SCT004 BKN008 03/02 Q1010
  • 261450Z VRB02KT 7000 -RA BKN004 02/02 Q1010

TAF TAF EDMO
Valide du 26 à 18h jusqu'au 27 à 03h UTC


261700Z 2618/2703 VRB03KT 8000 BKN007
TEMPO 2621/2703 4000 -SNRA BKN004
PROB30
TEMPO 2700/2703 2000 SN
Pas de NOTAMs connus pour ce terrain.



MET'MAP, la Météo Aéronautique d'un coup d'oeil ! - Copyright ORBIFLY Décembre 2007 - Disclaimer

ORBIFLY MET'MAP TEAM :

Programmation & Développement : Alexandra Zaïnal
Conception & Développement : Baudouin d'Aumeries
Co-Programmation & Développement : Marc-Olivier Méhu
Soutien technique & logistique : Manuel Goepfert

Contact : metmap@orbifly.com




SOURCES & CREDITS :

   NOAA